Pagina principale
METAR-TAF:

METAR-TAF

Aeroporti :

Aeroporto Internazionale di Nouakchott

Nouakchott, Mauritania

latitudine: 18-18-36N, longitudine: 015-58-11W, altezza: 3 m

Osservazione

Il bollettino è stato emesso 35 minuti fa, alle 14:00 UTC
Vento 10 kt da nord-est
Temperature 29°C
Umidità 12%
Pressione 1013 hPa
Visibilità: 8000 m

METAR: GQNO 181400Z 05010KT 8000 NSC 29/M03 Q1013 NOSIG

Ora: 14:35 (14:35 UTC)

Previsione

Il bollettino è stato emesso 3 ore e 35 minuti fa, alle 11:00 UTC
Previsione valida dal 18 alle 12 UTC al 19 alle 18 UTC
Vento 14 kt da nord-est
Visibilità: 6000 m
Evoluzione graduale
dal 18 alle 14 UTC al 18 alle 17 UTC
Vento 14 kt da nord/nord-ovest
Evoluzione graduale
dal 19 alle 07 UTC al 19 alle 09 UTC
Vento 14 kt da nord-est

TAF: GQNO 181100Z 1812/1918 04014KT 6000 NSC BECMG 1814/1817 33014KT BECMG 1907/1909 04014KT

Osservazioni e previsioni meteorologiche di più di 4000 aeroporti (messaggi METAR e TAF).

Le stazioni disponibili sono rappresentate dai dischi gialli e rossi sulla carta.

Puntare il mouse per vedere il nome della stazione.

Clicca sopra per visualizzare le osservazioni e previsioni meteorologiche.

Per cambiare la mappa : fare clic sui pulsanti verdi con una croce nera per ingrandire, il pulsante verde con un trattino per diminuire, o sulla freccia verde per le mappe adiacenti.


METAR-TAF: